Time;durP1;ratioP1;P1;durP2;ratioP2;P2;SDS_P1;SDS_P2;PMS_P1;PMS_P2;Temp;Humidity;BMP_temperature;BMP_pressure;BME280_temperature;BME280_humidity;BME280_pressure;Samples;Min_cycle;Max_cycle;Signal;HPM_P1;HPM_P2
2023/01/12 00:02:26;;;;;;;2.80;0.57;;;8.20;99.10;;;;;;4847514;29;20052;-87
2023/01/12 00:04:53;;;;;;;4.32;0.60;;;8.20;99.10;;;;;;4862572;29;20077;-87
2023/01/12 00:07:20;;;;;;;1.58;0.60;;;8.20;99.20;;;;;;4847698;29;20042;-87
2023/01/12 00:09:47;;;;;;;5.05;0.70;;;8.20;99.20;;;;;;4832011;29;20071;-87
2023/01/12 00:12:14;;;;;;;2.90;0.70;;;8.20;99.20;;;;;;4832072;29;20064;-87
2023/01/12 00:14:41;;;;;;;2.60;0.52;;;8.20;99.30;;;;;;4847193;29;20106;-87
2023/01/12 00:17:10;;;;;;;3.55;0.60;;;8.20;99.30;;;;;;4829054;29;20075;-87
2023/01/12 00:19:38;;;;;;;3.47;0.80;;;8.20;99.30;;;;;;4830405;29;20082;-88
2023/01/12 00:22:12;;;;;;;1.88;0.50;;;8.20;99.30;;;;;;4846801;29;20106;-87
2023/01/12 00:24:44;;;;;;;1.80;0.60;;;8.20;99.50;;;;;;4814576;29;20061;-86
2023/01/12 00:27:14;;;;;;;7.90;1.30;;;8.30;99.30;;;;;;4828555;29;20046;-87
2023/01/12 00:29:42;;;;;;;2.50;0.93;;;8.30;99.30;;;;;;4844108;29;20058;-88
2023/01/12 00:32:15;;;;;;;3.75;1.20;;;8.30;99.30;;;;;;4843655;29;20390;-86
2023/01/12 00:34:42;;;;;;;4.20;1.55;;;8.30;99.40;;;;;;4844711;29;20098;-88
2023/01/12 00:37:10;;;;;;;4.03;0.90;;;8.30;99.40;;;;;;4846923;29;20141;-88
2023/01/12 00:39:40;;;;;;;8.50;1.35;;;8.30;99.40;;;;;;4831815;29;20049;-88
2023/01/12 00:47:45;;;;;;;7.25;1.20;;;8.40;99.40;;;;;;4862107;29;20050;-88
2023/01/12 00:50:13;;;;;;;4.82;1.30;;;8.40;99.40;;;;;;4846880;29;20068;-88
2023/01/12 00:52:40;;;;;;;5.28;1.27;;;8.40;99.40;;;;;;4846328;29;20518;-88
2023/01/12 00:55:08;;;;;;;4.43;1.23;;;8.40;99.40;;;;;;4846590;29;20412;-88
2023/01/12 00:57:35;;;;;;;4.03;1.02;;;8.40;99.40;;;;;;4846983;29;20099;-88
2023/01/12 01:00:03;;;;;;;6.93;1.48;;;8.50;99.50;;;;;;4846323;29;20050;-89
2023/01/12 01:02:30;;;;;;;5.13;1.48;;;8.50;99.50;;;;;;4846507;29;20062;-89
2023/01/12 01:04:59;;;;;;;7.32;2.22;;;8.50;99.50;;;;;;4847121;29;20053;-88
2023/01/12 01:07:28;;;;;;;4.47;1.50;;;8.50;99.50;;;;;;4846671;29;20404;-88
2023/01/12 01:09:55;;;;;;;4.97;1.05;;;8.50;99.50;;;;;;4848763;29;20389;-88
2023/01/12 01:12:25;;;;;;;6.63;1.30;;;8.50;99.50;;;;;;4846583;29;20068;-87
2023/01/12 01:14:55;;;;;;;4.57;1.00;;;8.50;99.50;;;;;;4831659;29;20102;-88
2023/01/12 01:17:24;;;;;;;9.05;2.20;;;8.50;99.50;;;;;;4845947;29;20060;-87
2023/01/12 01:19:51;;;;;;;8.90;2.20;;;8.60;99.50;;;;;;4846451;29;20045;-87
2023/01/12 01:22:18;;;;;;;10.23;2.25;;;8.60;99.60;;;;;;4846058;29;20065;-88
2023/01/12 01:24:46;;;;;;;6.72;1.90;;;8.60;99.60;;;;;;4845998;29;20053;-86
2023/01/12 01:27:13;;;;;;;5.60;1.45;;;8.60;99.60;;;;;;4830992;29;20515;-86
2023/01/12 01:29:40;;;;;;;6.47;1.73;;;8.60;99.60;;;;;;4845758;29;20094;-86
2023/01/12 01:32:08;;;;;;;6.45;1.85;;;8.60;99.60;;;;;;4845615;29;20504;-87
2023/01/12 01:34:35;;;;;;;7.53;2.78;;;8.60;99.60;;;;;;4830549;29;20556;-86
2023/01/12 01:37:03;;;;;;;5.45;2.78;;;8.60;99.70;;;;;;4860882;29;20063;-86
2023/01/12 01:39:30;;;;;;;6.82;2.85;;;8.70;99.70;;;;;;4830558;29;20060;-86
2023/01/12 01:41:57;;;;;;;6.32;2.25;;;8.60;99.70;;;;;;4845352;29;20050;-86
2023/01/12 01:44:30;;;;;;;7.63;2.38;;;8.70;99.70;;;;;;4830122;29;20049;-87
2023/01/12 01:47:13;;;;;;;7.78;1.92;;;8.70;99.70;;;;;;4845355;29;20056;-87
2023/01/12 01:49:50;;;;;;;8.05;2.20;;;8.70;99.70;;;;;;4845171;29;20132;-90
2023/01/12 01:52:27;;;;;;;8.55;1.95;;;8.70;99.70;;;;;;4845817;29;20049;-86
2023/01/12 01:55:07;;;;;;;6.75;2.28;;;8.70;99.80;;;;;;4861144;29;20049;-90
2023/01/12 01:57:54;;;;;;;8.43;2.03;;;8.70;99.80;;;;;;4846710;29;20053;-91
2023/01/12 02:00:28;;;;;;;5.85;1.85;;;8.70;99.80;;;;;;4845797;29;20045;-90
2023/01/12 02:03:15;;;;;;;9.80;2.35;;;8.80;99.90;;;;;;4847956;29;20045;-91
2023/01/12 02:05:48;;;;;;;8.27;2.08;;;8.80;99.90;;;;;;4857005;29;20231;-90
2023/01/12 02:08:41;;;;;;;7.15;2.30;;;8.80;99.90;;;;;;4862608;29;20049;-89
2023/01/12 02:16:19;;;;;;;8.98;1.77;;;8.80;99.90;;;;;;4845719;29;20124;-89
2023/01/12 02:17:33;;;;;;;8.68;1.52;;;8.70;99.90;;;;;;4854991;29;20078;-90
2023/01/12 02:20:25;;;;;;;8.40;1.42;;;8.80;99.90;;;;;;4845624;29;20148;-90
2023/01/12 02:23:20;;;;;;;5.43;1.85;;;8.80;99.90;;;;;;4846584;29;20041;-89
2023/01/12 02:26:25;;;;;;;8.43;1.42;;;8.80;99.90;;;;;;4850098;29;20101;-88
2023/01/12 02:29:11;;;;;;;5.40;1.38;;;8.80;99.90;;;;;;4845183;29;20042;-88
2023/01/12 02:31:49;;;;;;;5.88;1.98;;;8.80;99.90;;;;;;4845418;29;20046;-88
2023/01/12 02:35:06;;;;;;;7.38;1.77;;;8.80;99.90;;;;;;4860467;29;20064;-88
2023/01/12 02:37:46;;;;;;;14.07;1.83;;;8.70;99.90;;;;;;4845309;29;20149;-89
2023/01/12 02:40:37;;;;;;;6.53;1.23;;;8.70;99.90;;;;;;4846361;29;20057;-89
2023/01/12 02:43:27;;;;;;;7.88;1.08;;;8.70;99.90;;;;;;4845784;29;20053;-89
2023/01/12 02:46:27;;;;;;;4.90;1.45;;;8.70;99.90;;;;;;4859981;29;20069;-92
2023/01/12 02:49:01;;;;;;;7.35;1.48;;;8.70;99.90;;;;;;4860219;29;20059;-90
2023/01/12 02:51:44;;;;;;;5.90;1.75;;;8.70;99.90;;;;;;4861060;29;20045;-94
2023/01/12 02:54:14;;;;;;;7.20;1.50;;;8.70;99.90;;;;;;4845237;29;20140;-95
2023/01/12 02:56:55;;;;;;;5.28;1.58;;;8.70;99.90;;;;;;4846008;29;20052;-93
2023/01/12 02:59:37;;;;;;;6.10;1.40;;;8.70;99.90;;;;;;4846226;29;20101;-91
2023/01/12 03:02:18;;;;;;;4.75;0.90;;;8.70;99.90;;;;;;4845602;29;20053;-91
2023/01/12 03:04:45;;;;;;;6.90;1.85;;;8.80;99.90;;;;;;4842508;29;20058;-92
2023/01/12 03:07:53;;;;;;;4.28;1.05;;;8.70;99.90;;;;;;4827454;29;20042;-92
2023/01/12 03:10:35;;;;;;;5.10;0.95;;;8.80;99.90;;;;;;4790022;29;20054;-90
2023/01/12 03:13:08;;;;;;;6.43;0.80;;;8.70;99.90;;;;;;4792990;29;20050;-91
2023/01/12 03:15:41;;;;;;;4.10;0.82;;;8.70;99.90;;;;;;4825963;29;20049;-93
2023/01/12 03:18:23;;;;;;;5.88;1.27;;;8.70;99.90;;;;;;4845104;29;20389;-92
2023/01/12 03:20:54;;;;;;;7.57;1.53;;;8.70;99.90;;;;;;4845495;29;20097;-92
2023/01/12 03:23:31;;;;;;;8.90;2.03;;;8.70;99.90;;;;;;4845038;29;20298;-90
2023/01/12 03:26:02;;;;;;;9.82;2.15;;;8.70;99.90;;;;;;4844686;29;20045;-89
2023/01/12 03:28:33;;;;;;;8.35;1.98;;;8.70;99.90;;;;;;4845077;29;20049;-90
2023/01/12 03:31:07;;;;;;;8.50;2.42;;;8.80;99.90;;;;;;4845328;29;20118;-92
2023/01/12 03:33:35;;;;;;;9.63;2.75;;;8.70;99.90;;;;;;4860376;29;20045;-90
2023/01/12 03:36:15;;;;;;;9.98;2.33;;;8.70;99.90;;;;;;4829930;29;20069;-92
2023/01/12 03:38:50;;;;;;;12.70;1.88;;;8.80;99.90;;;;;;4845025;29;20049;-94
2023/01/12 03:41:41;;;;;;;6.40;1.55;;;8.70;99.90;;;;;;4845313;29;20412;-93
2023/01/12 03:44:18;;;;;;;9.45;2.38;;;8.70;99.90;;;;;;4844842;29;20562;-93
2023/01/12 03:47:00;;;;;;;8.82;1.60;;;8.70;99.90;;;;;;4860342;29;20053;-91
2023/01/12 03:54:25;;;;;;;11.38;1.77;;;8.70;99.90;;;;;;4861823;29;20097;-93
2023/01/12 03:56:58;;;;;;;5.10;1.77;;;8.70;99.90;;;;;;4860981;29;20061;-92
2023/01/12 03:59:30;;;;;;;9.07;2.13;;;8.70;99.90;;;;;;4860357;29;20057;-91
2023/01/12 04:01:57;;;;;;;6.50;1.40;;;8.70;99.90;;;;;;4845439;29;20416;-92
2023/01/12 04:04:24;;;;;;;7.60;1.10;;;8.70;99.90;;;;;;4845003;29;20057;-92
2023/01/12 04:06:51;;;;;;;5.85;1.25;;;8.70;99.90;;;;;;4846956;29;20053;-91
2023/01/12 04:09:21;;;;;;;7.70;1.25;;;8.70;99.90;;;;;;4848061;29;20507;-93
2023/01/12 04:12:12;;;;;;;5.53;0.90;;;8.70;99.90;;;;;;4848920;29;20046;-93
2023/01/12 04:14:43;;;;;;;6.90;0.90;;;8.70;99.90;;;;;;4861161;29;20045;-88
2023/01/12 04:17:14;;;;;;;7.32;1.20;;;8.70;99.90;;;;;;4844438;29;20114;-87
2023/01/12 04:19:41;;;;;;;5.07;0.90;;;8.70;99.90;;;;;;4873376;29;20493;-92
2023/01/12 04:24:59;;;;;;;5.38;1.20;;;8.70;99.90;;;;;;4858928;29;20053;-90
2023/01/12 04:27:26;;;;;;;6.93;0.77;;;8.70;99.90;;;;;;4832560;29;20049;-90
2023/01/12 04:29:54;;;;;;;9.82;1.20;;;8.70;99.90;;;;;;4847628;29;20045;-90
2023/01/12 04:32:21;;;;;;;8.48;1.17;;;8.70;99.90;;;;;;4847598;29;20045;-92
2023/01/12 04:34:50;;;;;;;5.18;0.88;;;8.70;99.90;;;;;;4847391;29;20045;-90
2023/01/12 04:37:17;;;;;;;6.40;1.02;;;8.70;99.90;;;;;;4862387;29;20072;-90
2023/01/12 04:39:45;;;;;;;8.52;0.90;;;8.70;99.90;;;;;;4847056;29;20113;-92
2023/01/12 04:44:57;;;;;;;5.28;0.70;;;8.70;99.90;;;;;;4866756;29;20052;-91
2023/01/12 04:47:24;;;;;;;6.97;0.90;;;8.60;99.90;;;;;;4858460;29;20045;-92
2023/01/12 04:49:51;;;;;;;5.15;0.80;;;8.60;99.90;;;;;;4850224;29;20068;-93
2023/01/12 04:52:19;;;;;;;6.47;1.27;;;8.70;99.90;;;;;;4848930;29;20056;-96
2023/01/12 04:54:46;;;;;;;4.03;0.77;;;8.60;99.90;;;;;;4848779;29;20045;-95
2023/01/12 04:57:13;;;;;;;4.30;1.25;;;8.60;99.90;;;;;;4848236;29;20049;-92
2023/01/12 04:59:40;;;;;;;6.70;1.05;;;8.60;99.90;;;;;;4847300;29;20054;-92
2023/01/12 05:02:07;;;;;;;5.80;0.93;;;8.60;99.90;;;;;;4847162;29;20053;-92
2023/01/12 05:04:35;;;;;;;5.63;1.25;;;8.60;99.90;;;;;;4846200;29;20037;-88
2023/01/12 05:07:01;;;;;;;4.15;1.00;;;8.60;99.90;;;;;;4831656;29;20140;-91
2023/01/12 05:12:17;;;;;;;9.30;1.52;;;8.70;99.90;;;;;;4836613;29;20060;-91
2023/01/12 05:14:44;;;;;;;9.25;1.58;;;8.70;99.90;;;;;;4817464;29;20050;-92
2023/01/12 05:17:12;;;;;;;6.40;1.08;;;8.70;99.90;;;;;;4846164;29;20053;-93
2023/01/12 05:19:39;;;;;;;5.15;1.00;;;8.70;99.90;;;;;;4862256;29;20057;-92
2023/01/12 05:22:06;;;;;;;4.82;1.08;;;8.70;99.90;;;;;;4847479;29;20064;-95
2023/01/12 05:24:34;;;;;;;3.47;0.80;;;8.70;99.90;;;;;;4847861;29;20045;-96
2023/01/12 05:27:05;;;;;;;6.88;0.80;;;8.70;99.90;;;;;;4847577;29;20049;-94
2023/01/12 05:29:32;;;;;;;5.03;0.80;;;8.80;99.90;;;;;;4846935;29;20053;-93
2023/01/12 05:31:59;;;;;;;4.60;0.65;;;8.80;99.90;;;;;;4831413;29;20148;-94
2023/01/12 05:34:26;;;;;;;3.63;0.70;;;8.80;99.90;;;;;;4846646;29;20042;-94
2023/01/12 05:36:53;;;;;;;4.80;0.70;;;8.80;99.90;;;;;;4846718;29;20058;-95
2023/01/12 05:39:20;;;;;;;7.07;1.02;;;8.80;99.90;;;;;;4831524;29;20050;-94
2023/01/12 05:44:36;;;;;;;6.75;0.63;;;8.80;99.90;;;;;;4861678;29;20057;-92
2023/01/12 05:47:03;;;;;;;6.55;0.80;;;8.80;99.90;;;;;;4845970;29;20045;-92
2023/01/12 05:49:30;;;;;;;5.10;0.57;;;8.80;99.90;;;;;;4846297;29;20046;-92
2023/01/12 05:51:57;;;;;;;6.57;0.65;;;8.80;99.90;;;;;;4846821;29;20075;-93
2023/01/12 05:54:27;;;;;;;5.30;0.73;;;8.80;99.90;;;;;;4847030;29;20045;-93
2023/01/12 05:56:54;;;;;;;3.55;0.30;;;8.80;99.90;;;;;;4846792;29;20117;-93
2023/01/12 05:59:22;;;;;;;7.20;0.55;;;8.80;99.90;;;;;;4831606;29;20049;-94
2023/01/12 06:01:49;;;;;;;3.72;0.60;;;8.80;99.90;;;;;;4831379;29;20068;-93
2023/01/12 06:04:16;;;;;;;5.20;0.60;;;8.90;99.90;;;;;;4845752;29;20056;-92
2023/01/12 06:06:45;;;;;;;5.38;0.73;;;8.90;99.90;;;;;;4831134;29;20156;-93
2023/01/12 06:09:12;;;;;;;6.63;0.70;;;8.90;99.90;;;;;;4845868;29;20132;-93
2023/01/12 06:14:25;;;;;;;4.45;0.80;;;8.90;99.90;;;;;;4861189;29;20072;-92
2023/01/12 06:16:53;;;;;;;3.67;0.90;;;8.90;99.90;;;;;;4845624;29;20061;-92
2023/01/12 06:19:20;;;;;;;9.50;1.30;;;8.90;99.90;;;;;;4845693;29;20053;-91
2023/01/12 06:21:47;;;;;;;3.95;0.65;;;8.90;99.90;;;;;;4830651;29;20053;-92
2023/01/12 06:24:14;;;;;;;4.90;0.60;;;8.90;99.90;;;;;;4860956;29;20630;-91
2023/01/12 06:26:43;;;;;;;2.55;0.50;;;8.90;99.90;;;;;;4831023;29;20049;-91
2023/01/12 06:29:12;;;;;;;4.45;0.52;;;8.90;99.90;;;;;;4845605;29;20084;-92
2023/01/12 06:31:39;;;;;;;3.65;0.90;;;8.90;99.90;;;;;;4828747;29;20188;-92
2023/01/12 06:34:07;;;;;;;5.10;0.60;;;8.90;99.90;;;;;;4860515;29;20060;-92
2023/01/12 06:36:34;;;;;;;5.38;0.55;;;8.90;99.90;;;;;;4845603;29;20064;-92
2023/01/12 06:39:02;;;;;;;3.00;0.50;;;9.00;99.90;;;;;;4831153;29;20056;-92
2023/01/12 06:44:14;;;;;;;4.78;0.60;;;9.00;99.90;;;;;;4863489;29;20049;-92
2023/01/12 06:46:42;;;;;;;3.53;0.52;;;9.00;99.90;;;;;;4845344;29;20148;-93
2023/01/12 06:49:09;;;;;;;3.28;0.60;;;9.00;99.90;;;;;;4846219;29;20049;-91
2023/01/12 06:51:36;;;;;;;3.42;0.45;;;9.00;99.90;;;;;;4845766;29;20065;-91
2023/01/12 06:54:03;;;;;;;3.92;0.52;;;9.00;99.90;;;;;;4860779;29;20046;-90
2023/01/12 06:56:30;;;;;;;4.28;1.00;;;9.10;99.90;;;;;;4860643;29;20449;-90
2023/01/12 06:58:57;;;;;;;3.92;0.82;;;9.10;99.90;;;;;;4845405;29;20049;-91
2023/01/12 07:01:26;;;;;;;3.25;0.57;;;9.10;99.90;;;;;;4854675;29;20404;-89
2023/01/12 07:03:53;;;;;;;2.58;0.55;;;9.10;99.90;;;;;;4829864;29;20458;-89
2023/01/12 07:06:20;;;;;;;4.03;0.70;;;9.10;99.90;;;;;;4829864;29;20106;-88
2023/01/12 07:08:47;;;;;;;3.28;0.70;;;9.10;99.90;;;;;;4829767;29;20470;-88
2023/01/12 07:11:15;;;;;;;4.75;1.27;;;9.10;99.90;;;;;;4829923;29;20489;-88
2023/01/12 07:13:43;;;;;;;2.15;0.70;;;9.10;99.90;;;;;;4844933;29;20519;-87
2023/01/12 07:16:10;;;;;;;3.10;0.68;;;9.20;99.90;;;;;;4829664;29;20078;-88
2023/01/12 07:18:37;;;;;;;4.63;0.80;;;9.20;99.90;;;;;;4844646;29;20057;-87
2023/01/12 07:21:05;;;;;;;4.20;1.15;;;9.20;99.90;;;;;;4830265;29;20117;-90
2023/01/12 07:23:32;;;;;;;1.90;0.75;;;9.20;99.90;;;;;;4845118;29;20085;-88
2023/01/12 07:25:59;;;;;;;4.35;0.90;;;9.20;99.90;;;;;;4860549;29;20054;-88
2023/01/12 07:28:26;;;;;;;3.70;0.88;;;9.20;99.90;;;;;;4829502;29;20049;-87
2023/01/12 07:30:59;;;;;;;6.05;1.52;;;9.30;99.90;;;;;;4829641;29;20057;-88
2023/01/12 07:33:26;;;;;;;;;;;9.30;99.90;;;;;;4845353;29;20052;-87
2023/01/12 07:35:57;;;;;;;2.47;0.80;;;9.30;99.90;;;;;;4844450;29;20356;-89
2023/01/12 07:38:25;;;;;;;2.42;0.95;;;9.30;99.90;;;;;;4844706;29;20050;-87
2023/01/12 07:40:52;;;;;;;3.50;1.10;;;9.30;99.90;;;;;;4830925;29;20084;-88
2023/01/12 07:43:19;;;;;;;2.90;1.05;;;9.30;99.90;;;;;;4848228;29;20065;-88
2023/01/12 07:45:46;;;;;;;3.05;1.10;;;9.30;99.90;;;;;;4832939;29;20148;-88
2023/01/12 07:48:15;;;;;;;3.38;1.23;;;9.40;99.90;;;;;;4832879;29;20106;-88
2023/01/12 07:50:42;;;;;;;4.43;1.02;;;9.40;99.90;;;;;;4833003;29;20041;-88
2023/01/12 07:53:09;;;;;;;3.80;1.40;;;9.40;99.90;;;;;;4833072;29;20148;-90
2023/01/12 07:55:38;;;;;;;3.90;2.20;;;9.40;99.90;;;;;;4863544;29;20042;-89
2023/01/12 07:58:06;;;;;;;3.40;1.05;;;9.40;99.90;;;;;;4848115;29;20090;-89
2023/01/12 08:00:33;;;;;;;2.47;1.10;;;9.40;99.90;;;;;;4847948;29;20049;-89
2023/01/12 08:03:09;;;;;;;3.45;1.35;;;9.40;99.90;;;;;;4832774;29;20061;-88
2023/01/12 08:05:37;;;;;;;2.47;0.75;;;9.50;99.90;;;;;;4847890;29;20054;-89
2023/01/12 08:08:05;;;;;;;2.38;1.10;;;9.50;99.90;;;;;;4847766;29;20053;-89
2023/01/12 08:10:33;;;;;;;2.40;1.05;;;9.50;99.90;;;;;;4847962;29;20058;-89
2023/01/12 08:13:00;;;;;;;2.35;1.05;;;9.50;99.90;;;;;;4847742;29;20050;-90
2023/01/12 08:15:32;;;;;;;5.40;1.10;;;9.50;99.90;;;;;;4844713;29;20045;-86
2023/01/12 08:18:04;;;;;;;2.22;0.90;;;9.50;99.90;;;;;;4847829;29;20045;-89
2023/01/12 08:20:36;;;;;;;2.88;1.10;;;9.60;99.90;;;;;;4863174;29;20045;-90
2023/01/12 08:23:16;;;;;;;3.20;1.20;;;9.50;99.90;;;;;;4848274;29;20060;-91
2023/01/12 08:25:53;;;;;;;3.38;1.33;;;9.60;99.90;;;;;;4848174;29;20057;-91
2023/01/12 08:28:52;;;;;;;2.80;1.00;;;9.60;99.90;;;;;;4847917;29;20141;-90
2023/01/12 08:31:25;;;;;;;2.60;1.33;;;9.60;99.90;;;;;;4860185;29;20050;-87
2023/01/12 08:33:55;;;;;;;2.60;1.42;;;9.60;99.90;;;;;;4832665;29;20404;-88
2023/01/12 08:36:23;;;;;;;3.30;1.55;;;9.60;99.90;;;;;;4846921;29;20053;-90
2023/01/12 08:38:50;;;;;;;2.85;1.60;;;9.70;99.90;;;;;;4832670;29;20062;-92
2023/01/12 08:41:31;;;;;;;4.63;2.17;;;9.70;99.90;;;;;;4847895;29;20057;-91
2023/01/12 08:44:08;;;;;;;3.67;1.63;;;9.70;99.90;;;;;;4847304;29;20049;-89
2023/01/12 08:46:46;;;;;;;5.55;2.00;;;9.70;99.90;;;;;;4862884;29;20050;-92
2023/01/12 08:49:15;;;;;;;2.80;1.30;;;9.70;99.90;;;;;;4848015;29;20045;-93
2023/01/12 08:51:55;;;;;;;4.88;1.83;;;9.70;99.90;;;;;;4863229;29;20416;-96
2023/01/12 08:54:23;;;;;;;4.75;1.98;;;9.80;99.90;;;;;;4849442;29;20045;-87
2023/01/12 08:56:50;;;;;;;3.60;1.88;;;9.70;99.90;;;;;;4861916;29;20473;-91
2023/01/12 08:59:18;;;;;;;4.22;1.90;;;9.80;99.90;;;;;;4868694;29;20053;-89
2023/01/12 09:01:45;;;;;;;3.60;2.00;;;9.80;99.90;;;;;;4873068;29;20060;-90
2023/01/12 09:04:12;;;;;;;4.68;1.75;;;9.80;99.90;;;;;;4852796;29;20061;-90
2023/01/12 09:06:46;;;;;;;3.25;1.70;;;9.80;99.90;;;;;;4832928;29;20058;-91
2023/01/12 09:09:28;;;;;;;3.42;1.52;;;9.80;99.90;;;;;;4850676;29;20076;-92
2023/01/12 09:12:07;;;;;;;3.75;1.63;;;9.80;99.90;;;;;;4848366;29;20101;-93
2023/01/12 09:14:37;;;;;;;3.08;1.50;;;9.80;99.90;;;;;;4849331;29;20073;-95
2023/01/12 09:17:06;;;;;;;2.80;1.33;;;9.90;99.90;;;;;;4848909;29;20052;-91
2023/01/12 09:19:33;;;;;;;4.13;1.70;;;9.90;99.90;;;;;;4847853;29;20076;-94
2023/01/12 09:22:38;;;;;;;3.80;2.05;;;9.90;99.90;;;;;;4849632;29;20136;-96
2023/01/12 09:25:08;;;;;;;5.10;2.40;;;9.90;99.90;;;;;;4847818;29;20055;-93
2023/01/12 09:27:55;;;;;;;5.93;2.08;;;9.90;99.90;;;;;;4849439;29;20050;-92
2023/01/12 09:36:19;;;;;;;4.13;2.20;;;10.00;99.90;;;;;;4754993;30;20419;-95
2023/01/12 09:38:49;;;;;;;3.03;1.50;;;10.00;99.90;;;;;;4743627;29;20058;-94
2023/01/12 09:50:22;;;;;;;3.65;2.20;;;10.00;99.90;;;;;;4748660;30;20056;-96
2023/01/12 09:57:21;;;;;;;5.45;2.72;;;10.10;99.90;;;;;;4740910;30;20044;-89
2023/01/12 10:00:10;;;;;;;5.82;2.83;;;10.10;99.90;;;;;;4756256;30;20153;-89
2023/01/12 10:02:42;;;;;;;4.53;2.60;;;10.10;99.90;;;;;;4763852;29;20070;-90
2023/01/12 10:05:33;;;;;;;3.63;2.38;;;10.20;99.90;;;;;;4812868;29;20127;-91
2023/01/12 10:08:17;;;;;;;4.45;2.47;;;10.20;99.90;;;;;;4809784;29;20054;-89
2023/01/12 10:11:06;;;;;;;4.35;2.40;;;10.20;99.90;;;;;;4807853;29;20050;-91
2023/01/12 10:14:16;;;;;;;4.22;2.28;;;10.30;99.90;;;;;;4814407;29;20046;-94
2023/01/12 10:22:09;;;;;;;3.33;1.60;;;10.30;99.90;;;;;;4845938;29;20041;-95
2023/01/12 10:25:31;;;;;;;2.60;1.52;;;10.30;99.90;;;;;;4823823;29;20049;-95
2023/01/12 10:28:34;;;;;;;2.92;1.40;;;10.30;99.90;;;;;;4827990;29;20046;-88
2023/01/12 10:31:02;;;;;;;4.20;1.85;;;10.40;99.90;;;;;;4817773;29;20050;-89
2023/01/12 10:33:33;;;;;;;3.67;1.52;;;10.30;99.90;;;;;;4812142;29;20056;-89
2023/01/12 10:36:07;;;;;;;3.25;1.55;;;10.40;99.90;;;;;;4811694;29;20058;-87
2023/01/12 10:38:59;;;;;;;2.40;1.23;;;10.40;99.90;;;;;;4842088;29;20121;-88
2023/01/12 10:41:33;;;;;;;3.17;1.30;;;10.40;99.90;;;;;;4844817;29;20057;-87
2023/01/12 10:44:15;;;;;;;3.25;0.90;;;10.40;99.90;;;;;;4845292;29;20132;-87
2023/01/12 10:46:42;;;;;;;2.00;0.80;;;10.40;99.90;;;;;;4860615;29;20060;-88
2023/01/12 10:49:21;;;;;;;2.05;1.27;;;10.40;99.90;;;;;;4845439;29;20084;-89
2023/01/12 10:52:18;;;;;;;1.70;0.70;;;10.40;99.90;;;;;;4845603;29;20109;-89
2023/01/12 10:55:01;;;;;;;2.08;0.82;;;10.50;99.90;;;;;;4860740;29;20077;-91
2023/01/12 10:57:43;;;;;;;1.40;0.63;;;10.40;99.90;;;;;;4845957;29;20069;-91
2023/01/12 11:00:55;;;;;;;2.13;0.70;;;10.50;99.90;;;;;;4860527;29;20046;-92
2023/01/12 11:03:39;;;;;;;2.88;0.80;;;10.50;99.90;;;;;;4842325;29;20050;-90
2023/01/12 11:06:37;;;;;;;2.00;0.70;;;10.50;99.90;;;;;;4849256;29;20052;-90
2023/01/12 11:09:33;;;;;;;2.38;0.73;;;10.50;99.90;;;;;;4846377;29;20049;-92
2023/01/12 11:12:32;;;;;;;2.28;0.60;;;10.50;99.90;;;;;;4860964;29;20081;-93
2023/01/12 11:15:39;;;;;;;1.80;0.80;;;10.50;99.90;;;;;;4860727;29;20098;-93
2023/01/12 11:18:47;;;;;;;1.60;0.70;;;10.50;99.90;;;;;;4865211;29;20057;-93
2023/01/12 11:21:18;;;;;;;2.33;0.70;;;10.60;99.90;;;;;;4861354;29;20061;-86
2023/01/12 11:24:03;;;;;;;2.42;0.88;;;10.60;99.90;;;;;;4848551;29;20061;-90
2023/01/12 11:27:04;;;;;;;2.58;1.17;;;10.60;99.90;;;;;;4848711;29;20063;-88
2023/01/12 11:29:47;;;;;;;1.85;0.90;;;10.60;99.90;;;;;;4848457;29;20057;-90
2023/01/12 11:32:38;;;;;;;2.42;1.20;;;10.60;99.90;;;;;;4850507;29;20045;-92
2023/01/12 11:35:33;;;;;;;1.67;0.80;;;10.70;99.90;;;;;;4852795;29;20049;-93
2023/01/12 11:38:31;;;;;;;1.98;1.08;;;10.60;99.90;;;;;;4849645;29;20108;-91
2023/01/12 11:40:58;;;;;;;2.15;0.82;;;10.70;99.90;;;;;;4836017;29;20049;-92
2023/01/12 11:43:55;;;;;;;4.35;1.13;;;10.70;99.90;;;;;;4849191;29;20109;-88
2023/01/12 11:46:27;;;;;;;;;;;10.70;99.90;;;;;;4863521;29;20053;-89
2023/01/12 11:49:08;;;;;;;;;;;10.60;99.90;;;;;;4848338;29;19923;-91
2023/01/12 11:51:41;;;;;;;2.83;1.02;;;10.60;99.90;;;;;;4848510;29;19998;-89
2023/01/12 11:54:15;;;;;;;2.13;1.23;;;10.60;99.90;;;;;;4848424;29;20049;-89
2023/01/12 11:56:50;;;;;;;2.03;1.23;;;10.70;99.90;;;;;;4848892;29;20080;-90
2023/01/12 11:59:47;;;;;;;2.13;1.10;;;10.70;99.90;;;;;;4848041;29;20141;-89
2023/01/12 12:02:41;;;;;;;2.45;1.48;;;10.70;99.90;;;;;;4862889;29;20049;-91
2023/01/12 12:05:33;;;;;;;2.38;1.40;;;10.70;99.90;;;;;;4864036;29;20084;-89
2023/01/12 12:08:34;;;;;;;3.28;2.30;;;10.70;99.90;;;;;;4834736;29;20057;-89
2023/01/12 12:11:06;;;;;;;2.58;1.40;;;10.70;99.90;;;;;;4863413;29;20045;-90
2023/01/12 12:13:44;;;;;;;2.50;1.60;;;10.70;99.90;;;;;;4848376;29;20072;-92
2023/01/12 12:16:38;;;;;;;2.58;1.58;;;10.70;99.90;;;;;;4847735;29;20088;-92
2023/01/12 12:19:24;;;;;;;2.92;1.65;;;10.80;99.90;;;;;;4850244;29;20148;-92
2023/01/12 12:22:08;;;;;;;2.30;1.30;;;10.80;99.90;;;;;;4863738;29;20588;-91
2023/01/12 12:25:15;;;;;;;2.83;1.75;;;10.80;99.90;;;;;;4848116;29;20056;-89
2023/01/12 12:27:59;;;;;;;2.47;1.35;;;10.80;99.90;;;;;;4847077;29;20560;-89
2023/01/12 12:30:45;;;;;;;3.10;1.67;;;10.80;99.90;;;;;;4847594;29;20072;-89
2023/01/12 12:33:43;;;;;;;2.58;1.35;;;10.80;99.90;;;;;;4849199;29;20498;-88
2023/01/12 12:36:16;;;;;;;2.80;1.60;;;10.80;99.90;;;;;;4847332;29;20049;-90
2023/01/12 12:39:20;;;;;;;2.50;1.42;;;10.80;99.90;;;;;;4846888;29;20504;-91
2023/01/12 12:45:20;;;;;;;1.98;1.13;;;10.80;99.90;;;;;;4862662;29;20465;-88
2023/01/12 12:48:06;;;;;;;2.90;1.33;;;10.80;99.90;;;;;;4850971;29;20552;-89
2023/01/12 12:50:46;;;;;;;2.03;1.00;;;10.80;99.90;;;;;;4862564;29;20470;-89
2023/01/12 12:53:31;;;;;;;1.65;0.82;;;10.80;99.90;;;;;;4833747;29;20048;-92
2023/01/12 12:56:03;;;;;;;2.27;1.07;;;10.80;99.90;;;;;;4847540;29;20046;-91
2023/01/12 12:58:39;;;;;;;1.65;0.82;;;10.80;99.90;;;;;;4847264;29;20141;-91
2023/01/12 13:01:25;;;;;;;2.00;0.98;;;10.80;99.90;;;;;;4848702;29;20053;-93
2023/01/12 13:04:37;;;;;;;1.80;0.80;;;10.80;99.90;;;;;;4850480;29;20082;-94
2023/01/12 13:26:33;;;;;;;2.63;1.30;;;10.70;99.90;;;;;;5542953;23;20044;-88
2023/01/12 13:29:23;;;;;;;3.08;1.60;;;10.70;99.90;;;;;;4845064;29;20058;-88
2023/01/12 13:31:58;;;;;;;;;;;10.70;99.90;;;;;;4846920;29;20503;-89
2023/01/12 13:34:44;;;;;;;4.10;2.00;;;10.60;99.90;;;;;;4847530;29;19924;-92
2023/01/12 13:37:37;;;;;;;3.10;1.75;;;10.60;99.90;;;;;;4831369;29;20068;-88
2023/01/12 13:40:20;;;;;;;4.28;2.20;;;10.60;99.90;;;;;;4831244;29;20476;-87
2023/01/12 13:45:38;;;;;;;1.92;1.20;;;10.60;99.90;;;;;;4846587;29;20046;-91
2023/01/12 13:48:06;;;;;;;2.08;1.20;;;10.60;99.90;;;;;;4813374;29;20050;-91
2023/01/12 13:50:57;;;;;;;;;;;;;;;;;;;;;
2023/01/12 13:54:16;;;;;;;1.73;0.98;;;10.60;99.90;;;;;;4788953;29;20051;-94
2023/01/12 13:57:43;;;;;;;1.30;0.82;;;10.60;99.90;;;;;;4783794;29;20055;-92
2023/01/12 14:04:25;;;;;;;2.78;1.23;;;10.60;99.90;;;;;;4787454;30;20059;-91
2023/01/12 14:07:21;;;;;;;;;;;10.50;99.90;;;;;;4788487;30;20051;-91
2023/01/12 14:10:40;;;;;;;1.40;0.85;;;10.50;99.90;;;;;;4778951;29;19932;-88
2023/01/12 14:13:46;;;;;;;1.88;0.90;;;10.50;99.90;;;;;;4751796;30;20055;-92
2023/01/12 14:19:25;;;;;;;1.80;0.90;;;10.50;99.90;;;;;;4751690;30;20097;-88
2023/01/12 14:21:59;;;;;;;1.38;0.65;;;10.50;99.90;;;;;;4740036;30;20090;-89
2023/01/12 14:24:26;;;;;;;1.20;0.57;;;10.50;99.90;;;;;;4774987;29;20061;-89
2023/01/12 14:26:53;;;;;;;1.30;0.70;;;10.50;99.90;;;;;;4838384;29;20058;-88
2023/01/12 14:29:21;;;;;;;1.65;0.60;;;10.50;99.90;;;;;;4827413;29;20049;-90
2023/01/12 14:31:56;;;;;;;1.63;0.57;;;10.50;99.90;;;;;;4809884;29;20042;-91
2023/01/12 14:34:33;;;;;;;2.75;0.57;;;10.50;99.90;;;;;;4812866;29;20576;-87
2023/01/12 14:37:22;;;;;;;1.33;0.55;;;10.50;99.90;;;;;;4826778;29;20058;-87
2023/01/12 14:39:50;;;;;;;2.63;0.80;;;10.50;99.90;;;;;;4808307;29;20046;-86
2023/01/12 14:48:26;;;;;;;1.13;0.50;;;10.50;99.90;;;;;;4817424;29;20061;-85
2023/01/12 14:51:36;;;;;;;1.88;0.50;;;10.50;99.90;;;;;;4827725;29;20053;-86
2023/01/12 14:54:06;;;;;;;1.58;0.70;;;10.50;99.90;;;;;;4810593;29;20050;-85
2023/01/12 14:56:47;;;;;;;1.48;0.75;;;10.50;99.90;;;;;;4823153;29;20058;-85
2023/01/12 14:59:21;;;;;;;1.98;0.70;;;10.50;99.90;;;;;;4824243;29;20050;-85
2023/01/12 15:01:50;;;;;;;1.25;0.63;;;10.50;99.90;;;;;;4826059;29;20094;-87
2023/01/12 15:04:22;;;;;;;1.60;0.93;;;10.50;99.90;;;;;;4841305;29;20512;-88
2023/01/12 15:07:06;;;;;;;1.58;0.70;;;10.50;99.90;;;;;;4810587;29;20611;-86
2023/01/12 15:09:54;;;;;;;1.48;0.70;;;10.50;99.90;;;;;;4811988;29;20046;-88
2023/01/12 15:12:31;;;;;;;1.52;0.60;;;10.50;99.90;;;;;;4811449;29;20045;-82
2023/01/12 15:15:20;;;;;;;1.35;0.50;;;10.50;99.90;;;;;;4810830;29;20520;-82
2023/01/12 15:26:26;;;;;;;1.95;0.60;;;10.50;99.90;;;;;;4810176;29;20054;-82